Time;durP1;ratioP1;P1;durP2;ratioP2;P2;SDS_P1;SDS_P2;PMS_P1;PMS_P2;Temp;Humidity;BMP_temperature;BMP_pressure;BME280_temperature;BME280_humidity;BME280_pressure;Samples;Min_cycle;Max_cycle;Signal;HPM_P1;HPM_P2
2021/12/03 00:00:51;;;;;;;;;;;;;;;-3.65;100.00;99871.41;5092759;28;20070;-73
2021/12/03 00:03:17;;;;;;;;;;;;;;;-3.61;100.00;99875.69;5092781;28;20003;-73
2021/12/03 00:05:43;;;;;;;;;;;;;;;-3.59;100.00;99872.03;5092656;28;20052;-73
2021/12/03 00:08:10;;;;;;;;;;;;;;;-3.58;100.00;99870.25;5092469;28;20416;-72
2021/12/03 00:10:39;;;;;;;;;;;;;;;-3.57;100.00;99879.94;5092506;28;20003;-73
2021/12/03 00:13:06;;;;;;;;;;;;;;;-3.57;100.00;99882.59;5092798;28;19949;-73
2021/12/03 00:15:33;;;;;;;;;;;;;;;-3.60;100.00;99883.56;5092274;28;19995;-72
2021/12/03 00:17:59;;;;;;;;;;;;;;;-3.61;100.00;99900.41;5092389;28;20296;-72
2021/12/03 00:20:26;;;;;;;;;;;;;;;-3.63;100.00;99896.97;5092238;28;20011;-72
2021/12/03 00:22:54;;;;;;;;;;;;;;;-3.63;100.00;99899.63;5092365;28;20452;-72
2021/12/03 00:25:20;;;;;;;;;;;;;;;-3.65;100.00;99896.13;5092225;28;19952;-72
2021/12/03 00:27:48;;;;;;;;;;;;;;;-3.66;100.00;99894.44;5092375;28;20302;-72
2021/12/03 00:30:15;;;;;;;;;;;;;;;-3.65;100.00;99895.28;5092135;28;20056;-73
2021/12/03 00:32:42;;;;;;;;;;;;;;;-3.64;100.00;99900.53;5092098;28;20418;-73
2021/12/03 00:35:09;;;;;;;;;;;;;;;-3.63;100.00;99896.97;5092056;28;20408;-72
2021/12/03 00:37:37;;;;;;;;;;;;;;;-3.64;100.00;99895.22;5092169;28;19946;-73
2021/12/03 00:40:03;;;;;;;;;;;;;;;-3.64;100.00;99895.22;5092006;28;20414;-72
2021/12/03 00:42:31;;;;;;;;;;;;;;;-3.68;100.00;99896.25;5091977;28;19952;-72
2021/12/03 00:44:58;;;;;;;;;;;;;;;-3.72;100.00;99902.59;5091930;28;19960;-73
2021/12/03 00:47:26;;;;;;;;;;;;;;;-3.75;100.00;99894.75;5092569;28;19949;-73
2021/12/03 00:49:52;;;;;;;;;;;;;;;-3.75;100.00;99905.38;5090582;28;20404;-73
2021/12/03 00:52:18;;;;;;;;;;;;;;;-3.77;100.00;99909.84;5091840;28;20003;-73
2021/12/03 00:54:45;;;;;;;;;;;;;;;-3.76;100.00;99908.94;5091830;28;19983;-72
2021/12/03 00:57:11;;;;;;;;;;;;;;;-3.76;100.00;99909.78;5091878;28;19997;-73
2021/12/03 00:59:38;;;;;;;;;;;;;;;-3.74;100.00;99915.03;5091848;28;19966;-72
2021/12/03 01:02:05;;;;;;;;;;;;;;;-3.76;100.00;99916.88;5091445;28;19969;-73
2021/12/03 01:04:32;;;;;;;;;;;;;;;-3.74;100.00;99921.22;5091890;28;20389;-73
2021/12/03 01:06:58;;;;;;;;;;;;;;;-3.75;100.00;99922.13;5091553;28;19977;-73
2021/12/03 01:09:24;;;;;;;;;;;;;;;-3.80;100.00;99912.63;5091920;28;19996;-73
2021/12/03 01:11:51;;;;;;;;;;;;;;;-3.83;100.00;99913.59;5091715;28;19986;-73
2021/12/03 01:14:18;;;;;;;;;;;;;;;-3.87;100.00;99914.59;5091823;28;19976;-73
2021/12/03 01:16:45;;;;;;;;;;;;;;;-3.88;100.00;99908.41;5091494;28;20032;-72
2021/12/03 01:19:12;;;;;;;;;;;;;;;-3.93;100.00;99914.81;5091886;28;20000;-73
2021/12/03 01:21:39;;;;;;;;;;;;;;;-3.95;100.00;99916.66;5091646;28;20070;-73
2021/12/03 01:24:06;;;;;;;;;;;;;;;-3.93;100.00;99910.41;5091590;28;20002;-73
2021/12/03 01:26:33;;;;;;;;;;;;;;;-3.83;100.00;99899.47;5091437;28;20348;-73
2021/12/03 01:28:59;;;;;;;;;;;;;;;-3.81;100.00;99903.78;5091370;28;20404;-73
2021/12/03 01:31:25;;;;;;;;;;;;;;;-3.76;100.00;99895.66;5091601;28;20406;-73
2021/12/03 01:33:52;;;;;;;;;;;;;;;-3.72;100.00;99897.28;5091435;28;19980;-73
2021/12/03 01:36:19;;;;;;;;;;;;;;;-3.66;100.00;99897.09;5090134;28;20408;-73
2021/12/03 01:38:46;;;;;;;;;;;;;;;-3.58;100.00;99887.06;5091534;28;19999;-73
2021/12/03 01:41:12;;;;;;;;;;;;;;;-3.55;100.00;99892.25;5091227;28;20017;-73
2021/12/03 01:43:39;;;;;;;;;;;;;;;-3.54;100.00;99891.31;5091521;28;20041;-73
2021/12/03 01:46:07;;;;;;;;;;;;;;;-3.49;100.00;99890.28;5093183;28;20001;-72
2021/12/03 01:48:34;;;;;;;;;;;;;;;-3.44;100.00;99894.50;5091673;28;20061;-72
2021/12/03 01:51:00;;;;;;;;;;;;;;;-3.38;100.00;99890.75;5091292;28;20026;-73
2021/12/03 01:53:31;;;;;;;;;;;;;;;-3.34;100.00;99879.13;5091467;28;19979;-73
2021/12/03 01:56:00;;;;;;;;;;;;;;;-3.30;100.00;99883.38;5091350;28;19998;-73
2021/12/03 01:58:26;;;;;;;;;;;;;;;-3.22;100.00;99888.38;5091290;28;19984;-73
2021/12/03 02:00:54;;;;;;;;;;;;;;;-3.17;100.00;99878.47;5091231;28;20015;-73
2021/12/03 02:03:22;;;;;;;;;;;;;;;-3.10;100.00;99879.97;5091329;28;19986;-73
2021/12/03 02:05:48;;;;;;;;;;;;;;;-3.07;100.00;99879.84;5092633;28;19980;-73
2021/12/03 02:08:15;;;;;;;;;;;;;;;-3.01;100.00;99878.75;5093628;28;20055;-72
2021/12/03 02:10:43;;;;;;;;;;;;;;;-2.94;100.00;99869.63;5094851;28;20006;-72
2021/12/03 02:13:11;;;;;;;;;;;;;;;-2.87;100.00;99870.25;5094892;28;20057;-73
2021/12/03 02:15:38;;;;;;;;;;;;;;;-2.86;100.00;99862.22;5094794;28;20313;-73
2021/12/03 02:18:04;;;;;;;;;;;;;;;-2.89;100.00;99864.13;5094676;28;19979;-73
2021/12/03 02:20:31;;;;;;;;;;;;;;;-2.89;100.00;99858.81;5094688;28;20394;-73
2021/12/03 02:22:58;;;;;;;;;;;;;;;-2.88;100.00;99873.81;5094660;28;20382;-73
2021/12/03 02:25:25;;;;;;;;;;;;;;;-2.94;100.00;99866.09;5094271;28;19984;-73
2021/12/03 02:27:53;;;;;;;;;;;;;;;-2.95;100.00;99870.53;5094659;28;19951;-73
2021/12/03 02:30:20;;;;;;;;;;;;;;;-2.95;100.00;99867.00;5094514;28;19964;-72
2021/12/03 02:32:49;;;;;;;;;;;;;;;-2.98;100.00;99872.44;5094460;28;20033;-73
2021/12/03 02:35:15;;;;;;;;;;;;;;;-3.04;100.00;99869.09;5094250;28;19979;-72
2021/12/03 02:37:42;;;;;;;;;;;;;;;-3.02;100.00;99863.72;5094273;28;19995;-72
2021/12/03 02:40:10;;;;;;;;;;;;;;;-3.03;100.00;99864.66;5094303;28;20020;-73
2021/12/03 02:42:37;;;;;;;;;;;;;;;-3.05;100.00;99866.50;5094275;28;20010;-72
2021/12/03 02:45:04;;;;;;;;;;;;;;;-3.03;100.00;99860.22;5094187;28;20035;-73
2021/12/03 02:47:30;;;;;;;;;;;;;;;-2.98;100.00;99860.06;5094546;28;19985;-73
2021/12/03 02:49:57;;;;;;;;;;;;;;;-2.95;100.00;99862.56;5092743;28;19969;-72
2021/12/03 02:52:23;;;;;;;;;;;;;;;-2.97;100.00;99874.19;5094094;28;19984;-73
2021/12/03 02:54:50;;;;;;;;;;;;;;;-2.93;100.00;99866.03;5093967;28;20489;-72
2021/12/03 02:57:18;;;;;;;;;;;;;;;-2.88;100.00;99873.81;5093741;28;20402;-73
2021/12/03 02:59:44;;;;;;;;;;;;;;;-2.84;100.00;99871.91;5093791;28;19990;-73
2021/12/03 03:02:11;;;;;;;;;;;;;;;-2.88;100.00;99873.81;5093832;28;20013;-73
2021/12/03 03:04:37;;;;;;;;;;;;;;;-2.94;100.00;99882.03;5093936;28;19995;-72
2021/12/03 03:07:04;;;;;;;;;;;;;;;-2.97;100.00;99884.81;5093482;28;20073;-73
2021/12/03 03:09:32;;;;;;;;;;;;;;;-2.93;100.00;99875.78;5093587;28;19960;-72
2021/12/03 03:11:58;;;;;;;;;;;;;;;-2.91;100.00;99877.47;5094186;28;19956;-73
2021/12/03 03:14:25;;;;;;;;;;;;;;;-2.92;100.00;99867.75;5093810;28;20035;-73
2021/12/03 03:16:52;;;;;;;;;;;;;;;-2.94;100.00;99874.94;5093322;28;19949;-73
2021/12/03 03:19:20;;;;;;;;;;;;;;;-2.89;100.00;99864.97;5093492;28;19997;-72
2021/12/03 03:21:47;;;;;;;;;;;;;;;-2.86;100.00;99869.31;5093674;28;20068;-73
2021/12/03 03:24:15;;;;;;;;;;;;;;;-2.88;100.00;99858.75;5093284;28;19982;-73
2021/12/03 03:26:42;;;;;;;;;;;;;;;-2.85;100.00;99871.03;5093473;28;20055;-73
2021/12/03 03:29:11;;;;;;;;;;;;;;;-2.87;100.00;99872.91;5093166;28;20421;-73
2021/12/03 03:31:39;;;;;;;;;;;;;;;-2.87;100.00;99870.25;5093533;28;19981;-73
2021/12/03 03:34:06;;;;;;;;;;;;;;;-2.84;100.00;99869.25;5093233;28;20043;-73
2021/12/03 03:36:33;;;;;;;;;;;;;;;-2.77;100.00;99879.56;5093105;28;20034;-72
2021/12/03 03:38:59;;;;;;;;;;;;;;;-2.79;100.00;99878.78;5095537;28;20039;-73
2021/12/03 03:41:25;;;;;;;;;;;;;;;-2.79;100.00;99878.78;5093238;28;20078;-73
2021/12/03 03:43:52;;;;;;;;;;;;;;;-2.81;100.00;99877.09;5093208;28;20384;-73
2021/12/03 03:46:18;;;;;;;;;;;;;;;-2.78;100.00;99869.88;5092826;28;20047;-73
2021/12/03 03:48:45;;;;;;;;;;;;;;;-2.77;100.00;99873.41;5093065;28;20320;-73
2021/12/03 03:51:12;;;;;;;;;;;;;;;-2.79;100.00;99875.22;5092695;28;20052;-73
2021/12/03 03:53:40;;;;;;;;;;;;;;;-2.78;100.00;99885.81;5091736;28;19987;-73
2021/12/03 03:56:10;;;;;;;;;;;;;;;-2.75;100.00;99890.16;5092766;28;19957;-73
2021/12/03 03:58:37;;;;;;;;;;;;;;;-2.76;100.00;99889.28;5092740;28;19998;-73
2021/12/03 04:01:04;;;;;;;;;;;;;;;-2.71;100.00;99897.06;5092634;28;19970;-73
2021/12/03 04:03:31;;;;;;;;;;;;;;;-2.70;100.00;99888.16;5092637;28;19996;-73
2021/12/03 04:05:58;;;;;;;;;;;;;;;-2.67;100.00;99893.38;5092487;28;19957;-73
2021/12/03 04:08:28;;;;;;;;;;;;;;;-2.68;100.00;99904.06;5092537;28;20001;-73
2021/12/03 04:10:54;;;;;;;;;;;;;;;-2.62;100.00;99907.34;5091158;28;20335;-73
2021/12/03 04:13:21;;;;;;;;;;;;;;;-2.62;100.00;99895.81;5092532;28;20318;-73
2021/12/03 04:15:48;;;;;;;;;;;;;;;-2.61;100.00;99894.91;5091168;28;20432;-73
2021/12/03 04:18:14;;;;;;;;;;;;;;;-2.62;100.00;99895.81;5092800;28;19947;-73
2021/12/03 04:20:41;;;;;;;;;;;;;;;-2.66;100.00;99899.53;5091082;28;20012;-73
2021/12/03 04:23:09;;;;;;;;;;;;;;;-2.66;100.00;99899.53;5092635;28;20009;-73
2021/12/03 04:25:35;;;;;;;;;;;;;;;-2.69;100.00;99903.19;5092161;28;19960;-72
2021/12/03 04:28:02;;;;;;;;;;;;;;;-2.71;100.00;99907.72;5092024;28;19948;-73
2021/12/03 04:30:30;;;;;;;;;;;;;;;-2.74;100.00;99911.34;5092185;28;19985;-72
2021/12/03 04:32:58;;;;;;;;;;;;;;;-2.74;100.00;99903.38;5092082;28;20035;-73
2021/12/03 04:35:25;;;;;;;;;;;;;;;-2.72;100.00;99909.47;5091938;28;20042;-73
2021/12/03 04:37:51;;;;;;;;;;;;;;;-2.70;100.00;99909.41;5091918;28;20038;-73
2021/12/03 04:40:20;;;;;;;;;;;;;;;-2.70;100.00;99914.72;5092119;28;20034;-73
2021/12/03 04:42:47;;;;;;;;;;;;;;;-2.73;100.00;99912.19;5091970;28;20413;-73
2021/12/03 04:45:14;;;;;;;;;;;;;;;-2.68;100.00;99912.03;5091865;28;20437;-73
2021/12/03 04:47:41;;;;;;;;;;;;;;;-2.70;100.00;99915.59;5092025;28;19996;-72
2021/12/03 04:50:09;;;;;;;;;;;;;;;-2.70;100.00;99922.69;5091665;28;20006;-73
2021/12/03 04:52:35;;;;;;;;;;;;;;;-2.63;100.00;99915.34;5092112;28;20499;-73
2021/12/03 04:55:02;;;;;;;;;;;;;;;-2.63;100.00;99921.56;5091193;28;19953;-73
2021/12/03 04:57:29;;;;;;;;;;;;;;;-2.64;100.00;99918.97;5091824;28;20044;-73
2021/12/03 04:59:55;;;;;;;;;;;;;;;-2.62;100.00;99922.41;5091719;28;20067;-73
2021/12/03 05:02:24;;;;;;;;;;;;;;;-2.62;100.00;99914.44;5090539;28;20353;-72
2021/12/03 05:04:52;;;;;;;;;;;;;;;-2.61;100.00;99918.81;5091758;28;20444;-73
2021/12/03 05:07:30;;;;;;;;;;;;;;;-2.63;100.00;99925.97;5091721;28;19949;-72
2021/12/03 05:09:56;;;;;;;;;;;;;;;-2.63;100.00;99929.53;5091986;28;19969;-72
2021/12/03 05:12:23;;;;;;;;;;;;;;;-2.62;100.00;99925.06;5090360;28;20388;-73
2021/12/03 05:14:51;;;;;;;;;;;;;;;-2.64;100.00;99929.59;5091801;28;19946;-73
2021/12/03 05:17:17;;;;;;;;;;;;;;;-2.66;100.00;99931.41;5091510;28;20057;-73
2021/12/03 05:19:43;;;;;;;;;;;;;;;-2.67;100.00;99935.88;5091655;28;20064;-73
2021/12/03 05:22:10;;;;;;;;;;;;;;;-2.69;100.00;99927.09;5091456;28;20300;-73
2021/12/03 05:24:37;;;;;;;;;;;;;;;-2.71;100.00;99921.00;5091770;28;20331;-73
2021/12/03 05:27:03;;;;;;;;;;;;;;;-2.72;100.00;99937.84;5090326;28;20046;-73
2021/12/03 05:29:30;;;;;;;;;;;;;;;-2.70;100.00;99934.22;5090122;28;20009;-73
2021/12/03 05:31:57;;;;;;;;;;;;;;;-2.67;100.00;99940.31;5091562;28;20037;-72
2021/12/03 05:34:24;;;;;;;;;;;;;;;-2.63;100.00;99918.00;5091225;28;20050;-75
2021/12/03 05:36:51;;;;;;;;;;;;;;;-2.59;100.00;99946.19;5091251;28;19955;-74
2021/12/03 05:39:17;;;;;;;;;;;;;;;-2.59;100.00;99944.41;5091494;28;20063;-74
2021/12/03 05:41:43;;;;;;;;;;;;;;;-2.59;100.00;99951.50;5101333;28;20375;-75
2021/12/03 05:44:10;;;;;;;;;;;;;;;-2.58;100.00;99950.59;5104416;28;20056;-75
2021/12/03 05:46:36;;;;;;;;;;;;;;;-2.54;100.00;99961.06;5115062;28;20295;-75
2021/12/03 05:49:04;;;;;;;;;;;;;;;-2.55;100.00;99959.31;5098537;28;20045;-75
2021/12/03 05:51:30;;;;;;;;;;;;;;;-2.54;100.00;99958.41;5110728;28;20482;-75
2021/12/03 05:53:56;;;;;;;;;;;;;;;-2.58;100.00;99956.78;5113724;28;19950;-75
2021/12/03 05:56:23;;;;;;;;;;;;;;;-2.59;100.00;99965.69;5108692;28;20417;-75
2021/12/03 05:58:49;;;;;;;;;;;;;;;-2.59;100.00;99968.34;5104949;28;19980;-75
2021/12/03 06:01:16;;;;;;;;;;;;;;;-2.59;100.00;99970.09;5098294;28;19963;-75
2021/12/03 06:03:42;;;;;;;;;;;;;;;-2.59;100.00;99970.09;5115139;28;19968;-75
2021/12/03 06:06:10;;;;;;;;;;;;;;;-2.59;100.00;99967.44;5111894;28;20497;-75
2021/12/03 06:08:36;;;;;;;;;;;;;;;-2.60;100.00;99971.06;5094969;28;19994;-75
2021/12/03 06:11:02;;;;;;;;;;;;;;;-2.63;100.00;99974.69;5096114;28;20396;-75
2021/12/03 06:13:28;;;;;;;;;;;;;;;-2.58;100.00;99975.38;5112251;28;20056;-75
2021/12/03 06:15:55;;;;;;;;;;;;;;;-2.57;100.00;99969.13;5105319;28;20009;-75
2021/12/03 06:18:21;;;;;;;;;;;;;;;-2.60;100.00;99969.25;5101873;28;19953;-75
2021/12/03 06:20:47;;;;;;;;;;;;;;;-2.59;100.00;99975.41;5104669;28;20500;-74
2021/12/03 06:23:15;;;;;;;;;;;;;;;-2.60;100.00;99971.91;5094195;28;20073;-75
2021/12/03 06:25:42;;;;;;;;;;;;;;;-2.61;100.00;99967.50;5105636;28;19979;-74
2021/12/03 06:28:09;;;;;;;;;;;;;;;-2.66;100.00;99972.13;5114372;28;20039;-74
2021/12/03 06:30:35;;;;;;;;;;;;;;;-2.69;100.00;99974.91;5099490;28;19972;-74
2021/12/03 06:33:02;;;;;;;;;;;;;;;-2.73;100.00;99973.31;5104663;27;19954;-74
2021/12/03 06:35:29;;;;;;;;;;;;;;;-2.77;100.00;99969.91;5111599;28;20047;-74
2021/12/03 06:37:55;;;;;;;;;;;;;;;-2.74;100.00;99976.88;5113925;28;19987;-74
2021/12/03 06:40:24;;;;;;;;;;;;;;;-2.73;100.00;99975.97;5110595;28;20496;-74
2021/12/03 06:42:51;;;;;;;;;;;;;;;-2.72;100.00;99975.91;5103212;28;20062;-74
2021/12/03 06:45:17;;;;;;;;;;;;;;;-2.68;100.00;99981.13;5093861;28;20052;-75
2021/12/03 06:47:43;;;;;;;;;;;;;;;-2.66;100.00;99980.09;5097103;28;20048;-75
2021/12/03 06:50:13;;;;;;;;;;;;;;;-2.66;100.00;99981.91;5093793;28;20153;-74
2021/12/03 06:52:41;;;;;;;;;;;;;;;-2.66;100.00;99984.56;5098742;28;19965;-75
2021/12/03 06:55:10;;;;;;;;;;;;;;;-2.66;100.00;99981.91;5097821;28;19962;-74
2021/12/03 06:57:41;;;;;;;;;;;;;;;-2.68;100.00;99989.09;5098770;28;19952;-74
2021/12/03 07:00:08;;;;;;;;;;;;;;;-2.74;100.00;99998.13;5113609;28;19975;-72
2021/12/03 07:02:34;;;;;;;;;;;;;;;-2.71;100.00;100006.03;5112882;28;20059;-74
2021/12/03 07:05:04;;;;;;;;;;;;;;;-2.70;100.00;100002.41;5113625;28;20380;-73
2021/12/03 07:07:30;;;;;;;;;;;;;;;-2.63;100.00;100006.59;5111116;28;20406;-73
2021/12/03 07:09:56;;;;;;;;;;;;;;;-2.62;100.00;100005.66;5093415;28;19971;-73
2021/12/03 07:12:23;;;;;;;;;;;;;;;-2.61;100.00;100012.69;5095049;28;19966;-73
2021/12/03 07:14:50;;;;;;;;;;;;;;;-2.54;100.00;100011.56;5104822;28;20143;-74
2021/12/03 07:17:16;;;;;;;;;;;;;;;-2.46;100.00;100013.03;5112039;28;20052;-73
2021/12/03 07:19:43;;;;;;;;;;;;;;;-2.37;100.00;100013.53;5113749;28;20071;-73
2021/12/03 07:22:09;;;;;;;;;;;;;;;-2.29;100.00;100013.25;5095789;28;20060;-74
2021/12/03 07:24:35;;;;;;;;;;;;;;;-2.16;100.00;100018.06;5095575;28;20375;-73
2021/12/03 07:27:02;;;;;;;;;;;;;;;-2.03;100.00;100020.19;5106655;28;20046;-74
2021/12/03 07:29:31;;;;;;;;;;;;;;;-1.94;100.00;100024.25;5093803;28;19972;-73
2021/12/03 07:31:58;;;;;;;;;;;;;;;-1.74;100.00;100027.91;5093145;28;20365;-73
2021/12/03 07:34:25;;;;;;;;;;;;;;;-1.60;100.00;100020.22;5092905;28;20056;-73
2021/12/03 07:36:51;;;;;;;;;;;;;;;-1.52;100.00;100025.22;5109294;28;20533;-74
2021/12/03 07:39:17;;;;;;;;;;;;;;;-1.54;100.00;100025.28;5103187;28;20092;-73
2021/12/03 07:41:44;;;;;;;;;;;;;;;-1.53;100.00;100029.66;5104367;28;19955;-73
2021/12/03 07:44:10;;;;;;;;;;;;;;;-1.53;100.00;100037.63;5102275;28;20386;-74
2021/12/03 07:46:36;;;;;;;;;;;;;;;-1.49;100.00;100033.06;5096451;28;19958;-74
2021/12/03 07:49:04;;;;;;;;;;;;;;;-1.49;100.00;100043.72;5100605;28;20048;-74
2021/12/03 07:51:30;;;;;;;;;;;;;;;-1.47;100.00;100035.66;5101349;28;20039;-74
2021/12/03 07:53:57;;;;;;;;;;;;;;;-1.46;100.00;100037.41;5102667;28;19982;-72
2021/12/03 07:56:23;;;;;;;;;;;;;;;-1.42;100.00;100041.66;5100702;28;19959;-74
2021/12/03 07:58:49;;;;;;;;;;;;;;;-1.34;100.00;100052.84;5112143;28;19956;-73
2021/12/03 08:01:15;;;;;;;;;;;;;;;-1.31;100.00;100055.41;5112542;28;20073;-73
2021/12/03 08:03:42;;;;;;;;;;;;;;;-1.22;100.00;100065.63;5101984;28;19977;-73
2021/12/03 08:06:10;;;;;;;;;;;;;;;-1.14;100.00;100070.63;5093542;28;19988;-74
2021/12/03 08:08:39;;;;;;;;;;;;;;;-1.10;100.00;100064.22;5110463;28;19952;-74
2021/12/03 08:11:05;;;;;;;;;;;;;;;-1.03;100.00;100062.16;5110297;28;19978;-73
2021/12/03 08:13:33;;;;;;;;;;;;;;;-0.94;100.00;100066.25;5111560;28;20076;-73
2021/12/03 08:15:59;;;;;;;;;;;;;;;-0.89;100.00;100067.75;5112123;28;19950;-73
2021/12/03 08:18:26;;;;;;;;;;;;;;;-0.69;100.00;100064.19;5100533;28;20019;-73
2021/12/03 08:20:52;;;;;;;;;;;;;;;-0.46;100.00;100066.78;5112265;28;20016;-74
2021/12/03 08:23:20;;;;;;;;;;;;;;;-0.46;100.00;100062.28;5111280;28;20005;-74
2021/12/03 08:25:47;;;;;;;;;;;;;;;-0.51;100.00;100069.63;5109658;28;19945;-74
2021/12/03 08:28:13;;;;;;;;;;;;;;;-0.54;100.00;100067.97;5101634;28;19985;-74
2021/12/03 08:30:40;;;;;;;;;;;;;;;-0.54;100.00;100069.78;5112088;28;19963;-74
2021/12/03 08:33:06;;;;;;;;;;;;;;;-0.57;100.00;100059.25;5095192;28;20334;-73
2021/12/03 08:35:32;;;;;;;;;;;;;;;-0.53;100.00;100067.03;5106718;28;19956;-73
2021/12/03 08:37:59;;;;;;;;;;;;;;;-0.49;100.00;100064.22;5112198;28;20066;-73
2021/12/03 08:40:26;;;;;;;;;;;;;;;-0.48;100.00;100071.28;5094994;28;20069;-73
2021/12/03 08:42:53;;;;;;;;;;;;;;;-0.46;100.00;100072.09;5092383;28;20039;-73
2021/12/03 08:45:20;;;;;;;;;;;;;;;-0.39;100.00;100073.53;5104749;28;19956;-73
2021/12/03 08:47:50;;;;;;;;;;;;;;;-0.36;100.00;100073.38;5093041;28;20375;-73
2021/12/03 08:50:19;;;;;;;;;;;;;;;-0.36;100.00;100070.72;5098222;28;20066;-73
2021/12/03 08:52:53;;;;;;;;;;;;;;;-0.30;100.00;100078.44;5091503;28;19948;-74
2021/12/03 08:55:19;;;;;;;;;;;;;;;-0.29;100.00;100087.34;5101868;28;20142;-74
2021/12/03 08:57:47;;;;;;;;;;;;;;;-0.30;100.00;100078.44;5111967;28;19996;-74
2021/12/03 09:00:14;;;;;;;;;;;;;;;-0.24;100.00;100077.28;5105748;28;20007;-73
2021/12/03 09:02:41;;;;;;;;;;;;;;;-0.20;100.00;100074.41;5111921;28;19950;-73
2021/12/03 09:05:07;;;;;;;;;;;;;;;-0.12;100.00;100082.06;5104817;28;19974;-73
2021/12/03 09:07:33;;;;;;;;;;;;;;;-0.02;100.00;100071.81;5090263;28;19954;-73
2021/12/03 09:10:00;;;;;;;;;;;;;;;0.07;100.00;100079.38;5094231;28;20081;-73
2021/12/03 09:12:26;;;;;;;;;;;;;;;0.20;100.00;100071.66;5111395;28;20448;-72
2021/12/03 09:14:55;;;;;;;;;;;;;;;0.21;100.00;100077.84;5101079;28;20045;-73
2021/12/03 09:17:41;;;;;;;;;;;;;;;0.24;100.00;100072.34;5105477;28;19959;-73
2021/12/03 09:20:17;;;;;;;;;;;;;;;0.25;100.00;100077.63;5105998;28;19975;-73
2021/12/03 09:22:47;;;;;;;;;;;;;;;0.23;100.00;100081.28;5105950;28;19975;-74
2021/12/03 09:25:16;;;;;;;;;;;;;;;0.39;100.00;100074.28;5096803;28;19952;-74
2021/12/03 09:27:43;;;;;;;;;;;;;;;0.61;100.00;100071.38;5105386;28;19963;-73
2021/12/03 09:30:13;;;;;;;;;;;;;;;0.67;100.00;100072.91;5102437;28;20001;-74
2021/12/03 09:32:41;;;;;;;;;;;;;;;0.73;100.00;100072.59;5106587;28;19947;-74
2021/12/03 09:35:09;;;;;;;;;;;;;;;0.75;100.00;100068.03;5098589;28;19963;-75
2021/12/03 09:37:35;;;;;;;;;;;;;;;1.11;100.00;100066.19;5102603;28;20374;-75
2021/12/03 09:40:05;;;;;;;;;;;;;;;1.36;100.00;100059.56;5104079;28;20062;-74
2021/12/03 09:42:34;;;;;;;;;;;;;;;1.47;100.00;100066.06;5098735;28;19956;-74
2021/12/03 09:45:01;;;;;;;;;;;;;;;1.61;100.00;100061.78;5098620;28;20009;-74
2021/12/03 09:47:28;;;;;;;;;;;;;;;1.69;100.00;100066.72;5112594;28;19983;-74
2021/12/03 09:49:56;;;;;;;;;;;;;;;1.92;100.00;100060.94;5105851;28;20508;-74
2021/12/03 09:52:29;;;;;;;;;;;;;;;2.03;100.00;100059.47;5095255;28;20008;-74
2021/12/03 09:55:00;;;;;;;;;;;;;;;2.14;100.00;100068.63;5097356;28;19951;-73
2021/12/03 09:57:33;;;;;;;;;;;;;;;2.03;100.00;100068.34;5096978;28;19957;-74
2021/12/03 10:03:04;;;;;;;;;;;;;;;1.89;100.00;100057.59;5101853;28;19951;-74
2021/12/03 10:13:44;;;;;;;;;;;;;;;1.95;100.00;100052.75;5114992;28;20047;-74
2021/12/03 10:16:18;;;;;;;;;;;;;;;2.10;100.00;100050.13;5110090;28;19956;-74
2021/12/03 10:18:49;;;;;;;;;;;;;;;2.07;100.00;100059.22;5100321;28;20386;-74
2021/12/03 10:21:40;;;;;;;;;;;;;;;1.76;100.00;100049.38;5093141;28;20246;-74
2021/12/03 10:24:39;;;;;;;;;;;;;;;1.56;100.00;100056.66;5110687;28;20331;-74
2021/12/03 10:27:37;;;;;;;;;;;;;;;1.45;100.00;100049.22;5113785;28;19954;-75
2021/12/03 10:30:12;;;;;;;;;;;;;;;1.38;100.00;100054.97;5093832;28;19976;-75
2021/12/03 10:32:50;;;;;;;;;;;;;;;1.36;100.00;100056.88;5094108;28;19943;-74
2021/12/03 10:35:35;;;;;;;;;;;;;;;1.34;100.00;100046.28;5093758;28;19954;-75
2021/12/03 10:38:21;;;;;;;;;;;;;;;1.43;100.00;100055.59;5095569;28;19955;-74
2021/12/03 10:41:11;;;;;;;;;;;;;;;1.63;100.00;100049.16;5098039;28;20002;-75
2021/12/03 10:43:57;;;;;;;;;;;;;;;1.76;100.00;100044.88;5098077;28;20438;-75
2021/12/03 10:46:52;;;;;;;;;;;;;;;1.85;100.00;100043.50;5093715;28;19957;-74
2021/12/03 10:49:40;;;;;;;;;;;;;;;2.15;100.00;100035.56;5096324;28;19957;-74
2021/12/03 11:00:48;;;;;;;;;;;;;;;2.09;100.00;100035.03;5100195;28;20456;-74
2021/12/03 11:04:16;;;;;;;;;;;;;;;2.25;100.00;100018.97;5108046;28;19957;-75
2021/12/03 11:37:07;;;;;;;;;;;;;;;3.29;100.00;100024.38;5098814;28;19967;-73
2021/12/03 11:59:46;;;;;;;;;;;;;;;2.56;100.00;100036.78;5103515;28;19948;-74
2021/12/03 12:02:59;;;;;;;;;;;;;;;2.25;100.00;100045.75;5101485;28;20412;-73
2021/12/03 12:17:34;;;;;;;;;;;;;;;2.25;100.00;100038.56;5067727;28;19956;-73
2021/12/03 12:26:07;;;;;;;;;;;;;;;2.21;100.00;100039.69;5059404;28;19966;-73
2021/12/03 12:40:36;;;;;;;;;;;;;;;1.89;100.00;100034.34;5066195;28;19961;-75
2021/12/03 12:43:43;;;;;;;;;;;;;;;1.90;100.00;100036.09;5066951;28;19954;-74
2021/12/03 13:20:23;;;;;;;;;;;;;;;1.64;100.00;100018.78;5060166;28;19964;-75
2021/12/03 14:00:07;;;;;;;;;;;;;;;1.56;100.00;100021.88;5071571;28;19960;-76
2021/12/03 14:03:21;;;;;;;;;;;;;;;1.57;100.00;100012.91;5073034;28;19951;-76
2021/12/03 14:36:57;;;;;;;;;;;;;;;1.26;100.00;100005.72;5048444;28;19952;-75
2021/12/03 14:42:26;;;;;;;;;;;;;;;1.16;100.00;100016.03;5075633;28;20318;-78
2021/12/03 14:44:59;;;;;;;;;;;;;;;1.13;100.00;100018.88;5088143;28;20386;-77
2021/12/03 14:47:51;;;;;;;;;;;;;;;1.12;100.00;100017.13;5086867;28;19957;-77
2021/12/03 14:53:19;;;;;;;;;;;;;;;1.08;100.00;100011.13;5097675;28;20118;-77
2021/12/03 14:55:49;;;;;;;;;;;;;;;1.08;100.00;100018.25;5087305;28;20043;-76
2021/12/03 14:58:17;;;;;;;;;;;;;;;1.05;100.00;100015.75;5087700;28;19966;-76
2021/12/03 15:00:51;;;;;;;;;;;;;;;1.03;100.00;100020.28;5087766;28;20037;-76
2021/12/03 15:03:39;;;;;;;;;;;;;;;1.02;100.00;100027.47;5088069;28;19951;-76
2021/12/03 15:06:18;;;;;;;;;;;;;;;1.03;100.00;100017.63;5087506;28;20331;-77
2021/12/03 15:08:51;;;;;;;;;;;;;;;1.05;100.00;100015.75;5088302;28;19956;-78
2021/12/03 15:22:58;;;;;;;;;;;;;;;1.01;100.00;100009.69;5119739;28;19960;-77
2021/12/03 15:25:28;;;;;;;;;;;;;;;1.00;100.00;100002.59;5073048;28;19955;-76
2021/12/03 15:28:10;;;;;;;;;;;;;;;1.00;100.00;99997.25;5071068;28;19988;-78
2021/12/03 15:30:47;;;;;;;;;;;;;;;0.99;100.00;99998.22;5073666;28;20055;-77
2021/12/03 15:33:20;;;;;;;;;;;;;;;0.98;100.00;99991.16;5073649;28;20068;-76
2021/12/03 15:35:57;;;;;;;;;;;;;;;0.97;100.00;99990.28;5072803;28;19954;-77
2021/12/03 15:38:43;;;;;;;;;;;;;;;0.99;100.00;99992.88;5073856;28;19955;-76
2021/12/03 15:52:52;;;;;;;;;;;;;;;1.02;100.00;99976.69;5072416;28;19952;-77
2021/12/03 15:58:08;;;;;;;;;;;;;;;1.03;100.00;99981.09;5063893;28;20316;-77
2021/12/03 16:03:41;;;;;;;;;;;;;;;1.04;100.00;99982.78;5076451;28;19955;-77
2021/12/03 16:08:58;;;;;;;;;;;;;;;1.05;100.00;99962.28;5072959;28;19952;-77
2021/12/03 16:11:35;;;;;;;;;;;;;;;1.03;100.00;99964.16;5072244;28;20493;-77
2021/12/03 16:14:22;;;;;;;;;;;;;;;0.99;100.00;99963.47;5092254;28;19967;-75
2021/12/03 16:17:04;;;;;;;;;;;;;;;0.97;100.00;99957.34;5091918;28;20351;-77
2021/12/03 16:19:52;;;;;;;;;;;;;;;0.94;100.00;99960.19;5092302;28;20008;-77
2021/12/03 16:22:29;;;;;;;;;;;;;;;0.91;100.00;99952.31;5092100;28;19951;-77
2021/12/03 16:44:28;;;;;;;;;;;;;;;0.77;100.00;99940.56;5093220;28;19954;-75
2021/12/03 16:47:00;;;;;;;;;;;;;;;0.74;100.00;99951.41;5092857;28;19954;-76
2021/12/03 16:49:56;;;;;;;;;;;;;;;0.70;100.00;99939.16;5092162;28;20350;-76
2021/12/03 16:52:29;;;;;;;;;;;;;;;0.66;100.00;99930.44;5090515;28;19953;-76
2021/12/03 16:54:57;;;;;;;;;;;;;;;0.62;100.00;99930.69;5098649;28;19954;-76
2021/12/03 16:57:29;;;;;;;;;;;;;;;0.57;100.00;99922.06;5093381;28;19958;-76
2021/12/03 16:59:57;;;;;;;;;;;;;;;0.54;100.00;99928.41;5091830;28;19963;-75
2021/12/03 17:02:31;;;;;;;;;;;;;;;0.55;100.00;99940.84;5080562;28;19974;-77
2021/12/03 17:05:24;;;;;;;;;;;;;;;0.57;100.00;99936.25;5086553;28;20370;-75
2021/12/03 17:19:32;;;;;;;;;;;;;;;0.75;100.00;99934.44;5092758;28;20014;-75